Time;durP1;ratioP1;P1;durP2;ratioP2;P2;SDS_P1;SDS_P2;PMS_P1;PMS_P2;Temp;Humidity;BMP_temperature;BMP_pressure;BME280_temperature;BME280_humidity;BME280_pressure;Samples;Min_cycle;Max_cycle;Signal;HPM_P1;HPM_P2
2022/04/08 00:00:57;;;;;;;7.47;1.20;;;6.20;99.90;;;;;;4903131;29;20207;-91
2022/04/08 00:03:23;;;;;;;7.65;1.48;;;6.20;99.90;;;;;;4897896;29;20048;-88
2022/04/08 00:05:48;;;;;;;5.90;1.45;;;6.20;99.90;;;;;;4910839;29;20080;-91
2022/04/08 00:08:14;;;;;;;8.82;1.40;;;6.10;99.90;;;;;;4891396;29;20056;-92
2022/04/08 00:10:40;;;;;;;9.18;1.63;;;6.10;99.90;;;;;;4888132;29;20048;-90
2022/04/08 00:13:06;;;;;;;7.38;1.30;;;6.00;99.90;;;;;;4899504;29;20371;-91
2022/04/08 00:15:33;;;;;;;9.90;1.50;;;6.00;99.90;;;;;;4904769;29;20127;-89
2022/04/08 00:17:59;;;;;;;10.13;1.90;;;6.00;99.90;;;;;;4890030;29;20076;-91
2022/04/08 00:20:26;;;;;;;8.32;1.48;;;6.00;99.90;;;;;;4903420;29;20099;-91
2022/04/08 00:22:52;;;;;;;9.30;1.80;;;6.00;99.90;;;;;;4911124;29;20112;-94
2022/04/08 00:25:17;;;;;;;8.70;1.50;;;6.00;99.90;;;;;;4898993;29;20048;-91
2022/04/08 00:27:43;;;;;;;9.13;1.35;;;6.00;99.90;;;;;;4907436;29;20049;-88
2022/04/08 00:30:09;;;;;;;6.90;1.17;;;5.90;99.90;;;;;;4903194;29;20047;-88
2022/04/08 00:32:34;;;;;;;4.80;1.10;;;5.90;99.90;;;;;;4895522;29;20051;-90
2022/04/08 00:35:00;;;;;;;8.32;1.55;;;5.90;99.90;;;;;;4884365;29;20406;-92
2022/04/08 00:37:26;;;;;;;8.20;1.45;;;5.90;99.90;;;;;;4886833;29;20053;-93
2022/04/08 00:39:51;;;;;;;5.47;1.25;;;5.90;99.90;;;;;;4907347;29;20052;-91
2022/04/08 00:42:17;;;;;;;7.25;1.25;;;5.90;99.90;;;;;;4882375;29;20112;-90
2022/04/08 00:44:42;;;;;;;10.45;1.30;;;5.90;99.90;;;;;;4897063;29;20061;-91
2022/04/08 00:47:08;;;;;;;6.03;1.25;;;5.90;99.90;;;;;;4873532;29;20119;-92
2022/04/08 00:49:36;;;;;;;8.68;1.30;;;5.80;99.90;;;;;;4867457;29;20064;-87
2022/04/08 00:52:02;;;;;;;5.68;1.20;;;5.80;99.90;;;;;;4870658;29;20048;-91
2022/04/08 00:54:30;;;;;;;6.10;1.30;;;5.80;99.90;;;;;;4886043;29;20048;-89
2022/04/08 00:56:57;;;;;;;5.13;1.20;;;5.80;99.90;;;;;;4900545;29;20037;-90
2022/04/08 00:59:26;;;;;;;5.10;1.10;;;5.70;99.90;;;;;;4897262;29;20438;-90
2022/04/08 01:01:52;;;;;;;3.97;0.93;;;5.70;99.90;;;;;;4878856;29;20040;-89
2022/04/08 01:04:18;;;;;;;6.13;1.17;;;5.60;99.90;;;;;;4906313;29;20489;-88
2022/04/08 01:06:44;;;;;;;2.38;0.68;;;5.60;99.90;;;;;;4885837;29;20080;-90
2022/04/08 01:09:10;;;;;;;3.45;0.85;;;5.50;99.90;;;;;;4875383;29;20045;-92
2022/04/08 01:11:37;;;;;;;4.57;0.88;;;5.40;99.90;;;;;;4880091;29;20106;-89
2022/04/08 01:14:14;;;;;;;2.47;0.70;;;5.30;99.90;;;;;;4881270;29;20044;-92
2022/04/08 01:16:41;;;;;;;3.92;0.85;;;5.20;99.90;;;;;;4889692;29;20506;-94
2022/04/08 01:19:06;;;;;;;6.68;1.00;;;5.20;99.90;;;;;;4869947;29;20055;-90
2022/04/08 01:21:33;;;;;;;6.15;1.38;;;5.10;99.90;;;;;;4850325;29;20462;-90
2022/04/08 01:24:00;;;;;;;6.78;1.10;;;5.00;99.90;;;;;;4870145;29;20045;-91
2022/04/08 01:26:26;;;;;;;4.03;1.05;;;5.00;99.90;;;;;;4875733;29;20101;-92
2022/04/08 01:28:53;;;;;;;5.50;0.95;;;5.00;99.90;;;;;;4880656;29;20109;-91
2022/04/08 01:31:19;;;;;;;5.32;1.10;;;4.90;99.90;;;;;;4859691;29;20057;-90
2022/04/08 01:33:45;;;;;;;6.20;1.35;;;4.70;99.90;;;;;;4894552;29;20049;-90
2022/04/08 01:36:11;;;;;;;6.65;1.00;;;4.60;99.90;;;;;;4886966;29;20127;-95
2022/04/08 01:38:37;;;;;;;4.75;0.90;;;4.60;99.90;;;;;;4894697;29;20145;-91
2022/04/08 01:41:03;;;;;;;5.70;1.00;;;4.50;99.90;;;;;;4869973;29;20061;-90
2022/04/08 01:43:29;;;;;;;8.90;1.23;;;4.50;99.90;;;;;;4910472;29;20052;-91
2022/04/08 01:45:54;;;;;;;7.95;1.40;;;4.40;99.90;;;;;;4904219;29;20044;-94
2022/04/08 01:48:20;;;;;;;4.70;0.90;;;4.40;99.90;;;;;;4929718;29;20044;-91
2022/04/08 01:50:45;;;;;;;4.15;1.20;;;4.40;99.90;;;;;;4913076;29;20123;-96
2022/04/08 01:53:13;;;;;;;8.25;1.38;;;4.40;99.90;;;;;;4879873;29;20072;-90
2022/04/08 01:55:39;;;;;;;5.63;1.13;;;4.30;99.90;;;;;;4885577;29;20072;-92
2022/04/08 01:58:05;;;;;;;6.03;1.05;;;4.40;99.90;;;;;;4885026;29;20087;-90
2022/04/08 02:00:31;;;;;;;11.57;1.27;;;4.30;99.90;;;;;;4905863;29;20622;-92
2022/04/08 02:02:57;;;;;;;8.43;1.33;;;4.30;99.90;;;;;;4887111;29;20057;-92
2022/04/08 02:05:22;;;;;;;9.07;1.27;;;4.40;99.90;;;;;;4894382;29;20067;-90
2022/04/08 02:07:48;;;;;;;7.30;1.15;;;4.30;99.90;;;;;;4904702;29;20048;-94
2022/04/08 02:10:13;;;;;;;7.03;1.23;;;4.20;99.90;;;;;;4906957;29;20469;-93
2022/04/08 02:12:39;;;;;;;7.97;1.75;;;4.20;99.90;;;;;;4899822;29;20056;-90
2022/04/08 02:15:05;;;;;;;5.95;1.58;;;4.20;99.90;;;;;;4893476;29;20051;-92
2022/04/08 02:17:31;;;;;;;13.13;2.20;;;4.10;99.90;;;;;;4900956;29;20466;-91
2022/04/08 02:19:57;;;;;;;7.45;1.67;;;4.20;99.90;;;;;;4896277;29;20056;-91
2022/04/08 02:22:26;;;;;;;9.27;1.58;;;4.10;99.90;;;;;;4861090;29;20403;-91
2022/04/08 02:24:52;;;;;;;6.93;1.25;;;4.00;99.90;;;;;;4908547;29;20421;-89
2022/04/08 02:27:18;;;;;;;7.70;1.42;;;4.00;99.90;;;;;;4888834;29;20072;-92
2022/04/08 02:29:44;;;;;;;7.57;1.05;;;3.90;99.90;;;;;;4880029;29;20041;-90
2022/04/08 02:32:10;;;;;;;6.28;1.05;;;3.90;99.90;;;;;;4908720;29;20494;-90
2022/04/08 02:34:39;;;;;;;7.53;1.38;;;3.80;99.90;;;;;;4892704;29;20041;-91
2022/04/08 02:37:05;;;;;;;8.50;1.50;;;3.80;99.90;;;;;;4877148;29;20085;-89
2022/04/08 02:39:31;;;;;;;7.85;1.20;;;3.70;99.90;;;;;;4866843;29;20458;-92
2022/04/08 02:41:57;;;;;;;6.93;1.35;;;3.70;99.90;;;;;;4893132;29;20135;-90
2022/04/08 02:44:23;;;;;;;11.43;1.52;;;3.70;99.90;;;;;;4886472;29;20422;-91
2022/04/08 02:46:48;;;;;;;6.15;1.30;;;3.70;99.90;;;;;;4893766;29;20051;-91
2022/04/08 02:49:14;;;;;;;9.63;1.58;;;3.70;99.90;;;;;;4892099;29;20048;-92
2022/04/08 02:51:39;;;;;;;7.43;1.83;;;3.80;99.90;;;;;;4889048;29;20112;-94
2022/04/08 02:54:05;;;;;;;11.02;1.77;;;3.90;99.90;;;;;;4876080;29;20061;-93
2022/04/08 02:56:30;;;;;;;8.45;3.05;;;4.00;99.90;;;;;;4895174;29;20052;-92
2022/04/08 02:58:57;;;;;;;11.80;2.20;;;4.10;99.90;;;;;;4889042;29;20486;-90
2022/04/08 03:01:23;;;;;;;8.57;1.58;;;4.10;99.90;;;;;;4891566;29;20052;-92
2022/04/08 03:03:49;;;;;;;8.98;1.95;;;4.10;99.90;;;;;;4901421;29;20032;-91
2022/04/08 03:06:15;;;;;;;6.78;1.80;;;4.20;99.90;;;;;;4907784;29;20052;-91
2022/04/08 03:08:40;;;;;;;6.50;1.60;;;4.20;99.90;;;;;;4881119;29;20047;-91
2022/04/08 03:11:06;;;;;;;4.22;1.23;;;4.10;99.90;;;;;;4893673;29;20049;-93
2022/04/08 03:13:32;;;;;;;4.90;1.00;;;4.10;99.90;;;;;;4910599;29;20478;-90
2022/04/08 03:15:58;;;;;;;7.82;1.63;;;4.10;99.90;;;;;;4896111;29;20052;-90
2022/04/08 03:18:23;;;;;;;7.38;1.20;;;4.10;99.90;;;;;;4903460;29;20047;-92
2022/04/08 03:20:49;;;;;;;7.38;1.35;;;4.10;99.90;;;;;;4901598;29;20052;-92
2022/04/08 03:23:15;;;;;;;7.18;1.27;;;4.20;99.90;;;;;;4915438;29;20045;-92
2022/04/08 03:25:40;;;;;;;5.97;1.02;;;4.20;99.90;;;;;;4904591;29;20050;-93
2022/04/08 03:28:08;;;;;;;11.38;1.60;;;4.30;99.90;;;;;;4902638;29;20069;-90
2022/04/08 03:30:33;;;;;;;11.98;1.80;;;4.30;99.90;;;;;;4906918;29;20052;-91
2022/04/08 03:32:59;;;;;;;7.57;2.08;;;4.30;99.90;;;;;;4888662;29;20040;-91
2022/04/08 03:35:24;;;;;;;9.38;1.25;;;4.30;99.90;;;;;;4902437;29;20452;-92
2022/04/08 03:37:50;;;;;;;6.22;1.77;;;4.30;99.90;;;;;;4907605;29;20414;-91
2022/04/08 03:40:16;;;;;;;10.55;1.77;;;4.30;99.90;;;;;;4895587;29;20846;-92
2022/04/08 03:42:42;;;;;;;8.95;1.77;;;4.40;99.90;;;;;;4904884;29;20418;-90
2022/04/08 03:45:07;;;;;;;8.57;1.85;;;4.40;99.90;;;;;;4898449;29;20146;-90
2022/04/08 03:47:33;;;;;;;8.43;1.55;;;4.40;99.90;;;;;;4887990;29;20077;-91
2022/04/08 03:49:58;;;;;;;6.20;1.40;;;4.40;99.90;;;;;;4901693;29;20053;-91
2022/04/08 03:52:29;;;;;;;7.20;1.10;;;4.50;99.90;;;;;;4884240;29;20053;-91
2022/04/08 03:54:55;;;;;;;9.13;1.88;;;4.40;99.90;;;;;;4897924;29;20442;-90
2022/04/08 03:57:20;;;;;;;6.07;1.45;;;4.40;99.90;;;;;;4909053;29;20056;-91
2022/04/08 03:59:47;;;;;;;5.85;1.40;;;4.50;99.90;;;;;;4889093;29;20060;-92
2022/04/08 04:02:13;;;;;;;5.82;2.00;;;4.50;99.90;;;;;;4886650;29;20053;-89
2022/04/08 04:04:38;;;;;;;8.65;1.38;;;4.50;99.90;;;;;;4894693;29;20049;-89
2022/04/08 04:07:04;;;;;;;6.30;1.60;;;4.50;99.90;;;;;;4893506;29;20143;-90
2022/04/08 04:09:30;;;;;;;7.90;1.50;;;4.40;99.90;;;;;;4899521;29;20045;-90
2022/04/08 04:11:55;;;;;;;3.97;1.33;;;4.40;99.90;;;;;;4911833;29;20048;-92
2022/04/08 04:14:21;;;;;;;7.45;1.30;;;4.40;99.90;;;;;;4931952;29;20737;-91
2022/04/08 04:16:47;;;;;;;6.10;1.50;;;4.20;99.90;;;;;;4900757;29;20036;-93
2022/04/08 04:19:12;;;;;;;6.15;1.67;;;4.20;99.90;;;;;;4886380;29;20520;-92
2022/04/08 04:21:38;;;;;;;9.23;1.65;;;4.20;99.90;;;;;;4881993;29;20044;-93
2022/04/08 04:24:04;;;;;;;8.77;1.70;;;4.20;99.90;;;;;;4897444;29;20060;-92
2022/04/08 04:26:29;;;;;;;6.18;1.35;;;4.20;99.90;;;;;;4895999;29;20147;-93
2022/04/08 04:28:55;;;;;;;10.23;1.95;;;4.20;99.90;;;;;;4899080;29;20493;-90
2022/04/08 04:31:20;;;;;;;5.55;1.42;;;4.20;99.90;;;;;;4895448;29;20128;-92
2022/04/08 04:33:46;;;;;;;8.18;1.38;;;4.20;99.90;;;;;;4880648;29;20135;-88
2022/04/08 04:36:13;;;;;;;7.00;1.58;;;4.10;99.90;;;;;;4905423;29;20401;-94
2022/04/08 04:38:38;;;;;;;5.30;1.80;;;4.10;99.90;;;;;;4879623;29;20367;-93
2022/04/08 04:41:04;;;;;;;6.75;1.50;;;4.10;99.90;;;;;;4895524;29;20103;-89
2022/04/08 04:43:30;;;;;;;4.05;1.05;;;4.00;99.90;;;;;;4903491;29;20048;-90
2022/04/08 04:45:55;;;;;;;5.80;2.00;;;4.00;99.90;;;;;;4886822;29;20056;-90
2022/04/08 04:48:22;;;;;;;6.20;1.45;;;3.90;99.90;;;;;;4888183;29;20045;-91
2022/04/08 04:50:48;;;;;;;5.78;1.60;;;3.90;99.90;;;;;;4900238;29;20127;-92
2022/04/08 04:53:14;;;;;;;5.18;1.10;;;3.80;99.90;;;;;;4911846;29;20128;-92
2022/04/08 04:55:39;;;;;;;6.68;1.40;;;3.90;99.90;;;;;;4901565;29;20510;-93
2022/04/08 04:58:05;;;;;;;3.53;1.20;;;3.90;99.90;;;;;;4904185;29;20095;-91
2022/04/08 05:00:31;;;;;;;6.13;1.50;;;3.90;99.90;;;;;;4886913;29;20477;-90
2022/04/08 05:02:56;;;;;;;6.30;1.23;;;3.90;99.90;;;;;;4899887;29;20052;-93
2022/04/08 05:05:22;;;;;;;6.28;1.60;;;3.90;99.90;;;;;;4904743;29;20055;-91
2022/04/08 05:07:48;;;;;;;4.03;1.17;;;4.00;99.90;;;;;;4894274;29;20723;-89
2022/04/08 05:10:13;;;;;;;4.53;1.10;;;4.00;99.90;;;;;;4885386;29;20465;-92
2022/04/08 05:12:39;;;;;;;6.45;1.27;;;4.00;99.90;;;;;;4891341;29;20067;-91
2022/04/08 05:15:06;;;;;;;4.22;1.38;;;4.00;99.90;;;;;;4899000;29;20052;-89
2022/04/08 05:17:35;;;;;;;5.18;1.50;;;4.00;99.90;;;;;;4895383;29;20508;-89
2022/04/08 05:20:01;;;;;;;7.32;1.60;;;4.10;99.90;;;;;;4910921;29;20060;-92
2022/04/08 05:22:27;;;;;;;6.38;1.40;;;4.10;99.90;;;;;;4908177;29;20116;-93
2022/04/08 05:24:52;;;;;;;6.15;1.67;;;4.20;99.90;;;;;;4899195;29;20127;-92
2022/04/08 05:27:18;;;;;;;4.93;1.35;;;4.30;99.90;;;;;;4892416;29;20130;-92
2022/04/08 05:29:43;;;;;;;6.90;1.38;;;4.30;99.90;;;;;;4893058;29;20451;-90
2022/04/08 05:32:09;;;;;;;3.42;1.10;;;4.40;99.90;;;;;;4900080;29;20402;-92
2022/04/08 05:34:34;;;;;;;6.78;1.45;;;4.40;99.90;;;;;;4892198;29;20056;-89
2022/04/08 05:37:00;;;;;;;5.93;1.40;;;4.40;99.90;;;;;;4886892;29;20398;-91
2022/04/08 05:39:26;;;;;;;7.45;1.38;;;4.40;99.90;;;;;;4903829;29;21588;-90
2022/04/08 05:41:51;;;;;;;5.78;1.33;;;4.40;99.90;;;;;;4897488;29;20056;-90
2022/04/08 05:44:17;;;;;;;4.63;1.30;;;4.40;99.90;;;;;;4882054;29;20045;-89
2022/04/08 05:46:43;;;;;;;4.50;1.35;;;4.40;99.90;;;;;;4920151;29;20142;-89
2022/04/08 05:49:09;;;;;;;5.95;1.45;;;4.40;99.90;;;;;;4903303;29;20442;-88
2022/04/08 05:51:35;;;;;;;6.13;1.38;;;4.30;99.90;;;;;;4910100;29;20128;-90
2022/04/08 05:54:00;;;;;;;2.75;1.23;;;4.30;99.90;;;;;;4890399;29;20045;-89
2022/04/08 05:56:26;;;;;;;3.10;1.27;;;4.30;99.90;;;;;;4877735;29;20048;-89
2022/04/08 05:58:51;;;;;;;4.03;1.33;;;4.30;99.90;;;;;;4920293;29;20044;-88
2022/04/08 06:01:17;;;;;;;2.70;1.10;;;4.30;99.90;;;;;;4905866;29;20055;-90
2022/04/08 06:03:42;;;;;;;5.30;1.90;;;4.40;99.90;;;;;;4921108;29;20075;-88
2022/04/08 06:06:08;;;;;;;3.97;1.38;;;4.40;99.90;;;;;;4912022;29;20058;-90
2022/04/08 06:08:33;;;;;;;4.65;1.48;;;4.50;99.90;;;;;;4914426;29;20095;-87
2022/04/08 06:10:59;;;;;;;4.40;1.10;;;4.50;99.90;;;;;;4890968;29;20055;-93
2022/04/08 06:13:26;;;;;;;5.85;1.63;;;4.50;99.90;;;;;;4897468;29;20143;-91
2022/04/08 06:15:52;;;;;;;6.20;1.58;;;4.50;99.90;;;;;;4903720;29;20057;-92
2022/04/08 06:18:19;;;;;;;3.75;1.50;;;4.40;99.90;;;;;;4875042;29;20076;-93
2022/04/08 06:20:45;;;;;;;7.43;1.65;;;4.40;99.90;;;;;;4899644;29;20104;-95
2022/04/08 06:23:11;;;;;;;4.93;1.85;;;4.30;99.90;;;;;;4878157;29;20045;-93
2022/04/08 06:25:36;;;;;;;4.47;1.15;;;4.20;99.90;;;;;;4893987;29;20453;-91
2022/04/08 06:28:04;;;;;;;4.93;1.30;;;4.20;99.90;;;;;;4869627;29;20059;-94
2022/04/08 06:30:35;;;;;;;3.28;1.20;;;4.10;99.90;;;;;;4896329;29;20062;-93
2022/04/08 06:33:05;;;;;;;3.35;1.20;;;4.10;99.90;;;;;;4900716;29;20137;-89
2022/04/08 06:35:32;;;;;;;4.60;1.58;;;4.20;99.90;;;;;;4903564;29;20041;-91
2022/04/08 06:38:03;;;;;;;3.65;1.30;;;4.20;99.90;;;;;;4864497;29;20092;-93
2022/04/08 06:40:29;;;;;;;6.85;1.40;;;4.20;99.90;;;;;;4896712;29;20086;-93
2022/04/08 06:42:55;;;;;;;4.93;1.50;;;4.20;99.90;;;;;;4886492;29;20514;-88
2022/04/08 06:45:22;;;;;;;3.80;1.40;;;4.30;99.90;;;;;;4863041;29;20049;-90
2022/04/08 06:47:51;;;;;;;4.63;1.73;;;4.40;99.90;;;;;;4881749;29;20045;-91
2022/04/08 06:50:18;;;;;;;4.28;1.40;;;4.50;99.90;;;;;;4889936;29;20049;-89
2022/04/08 06:52:43;;;;;;;5.63;1.40;;;4.60;99.90;;;;;;4894985;29;20491;-91
2022/04/08 06:55:09;;;;;;;3.90;1.10;;;4.80;99.90;;;;;;4889708;29;20063;-89
2022/04/08 06:57:35;;;;;;;4.25;1.20;;;4.90;99.90;;;;;;4898018;29;20048;-90
2022/04/08 07:00:06;;;;;;;3.53;1.20;;;4.90;99.90;;;;;;4893924;29;20517;-91
2022/04/08 07:02:32;;;;;;;2.97;1.17;;;4.90;99.90;;;;;;4894174;29;20040;-91
2022/04/08 07:04:57;;;;;;;5.22;1.50;;;4.90;99.90;;;;;;4874125;29;20048;-90
2022/04/08 07:07:33;;;;;;;8.38;1.58;;;4.90;99.90;;;;;;4899858;29;20052;-89
2022/04/08 07:09:59;;;;;;;5.00;1.45;;;4.80;99.90;;;;;;4917699;29;20073;-91
2022/04/08 07:12:25;;;;;;;5.63;1.42;;;4.80;99.90;;;;;;4883976;29;20056;-91
2022/04/08 07:14:51;;;;;;;5.85;1.30;;;4.80;99.90;;;;;;4899326;29;20040;-90
2022/04/08 07:17:17;;;;;;;6.93;1.40;;;4.90;99.90;;;;;;4881069;29;20379;-87
2022/04/08 07:19:42;;;;;;;2.40;1.10;;;5.00;99.90;;;;;;4911973;29;20052;-91
2022/04/08 07:22:08;;;;;;;3.03;1.33;;;5.10;99.90;;;;;;4873263;29;20045;-87
2022/04/08 07:24:33;;;;;;;3.78;1.17;;;5.20;99.90;;;;;;4895645;29;20047;-89
2022/04/08 07:26:59;;;;;;;4.38;1.13;;;5.30;99.90;;;;;;4913628;29;20159;-88
2022/04/08 07:29:24;;;;;;;6.03;1.40;;;5.50;99.90;;;;;;4890111;29;20040;-88
2022/04/08 07:31:50;;;;;;;4.93;1.40;;;5.60;99.90;;;;;;4881004;29;20060;-89
2022/04/08 07:34:16;;;;;;;4.50;1.60;;;5.70;99.90;;;;;;4876080;29;20048;-88
2022/04/08 07:36:41;;;;;;;5.45;1.55;;;5.90;99.90;;;;;;4873814;29;20076;-96
2022/04/08 07:39:07;;;;;;;5.53;1.67;;;6.00;99.90;;;;;;4873773;29;20055;-89
2022/04/08 07:41:32;;;;;;;6.28;1.52;;;6.10;99.90;;;;;;4889445;29;20064;-91
2022/04/08 07:43:58;;;;;;;6.18;1.63;;;6.20;99.90;;;;;;4889249;29;20049;-90
2022/04/08 07:46:23;;;;;;;6.63;1.55;;;6.40;99.90;;;;;;4897615;29;20063;-89
2022/04/08 07:48:49;;;;;;;7.22;1.85;;;6.50;99.90;;;;;;4876268;29;20509;-89
2022/04/08 07:51:15;;;;;;;7.40;1.63;;;6.60;99.90;;;;;;4896237;29;20143;-90
2022/04/08 07:53:40;;;;;;;6.82;2.63;;;6.50;99.90;;;;;;4908068;29;20044;-89
2022/04/08 07:56:07;;;;;;;7.15;1.70;;;6.40;99.90;;;;;;4904471;29;20459;-93
2022/04/08 07:58:32;;;;;;;7.88;1.95;;;6.20;99.90;;;;;;4891495;29;20045;-91
2022/04/08 08:00:58;;;;;;;7.28;2.35;;;6.10;99.90;;;;;;4896379;29;20192;-96
2022/04/08 08:03:24;;;;;;;9.95;2.30;;;5.90;99.90;;;;;;4901756;29;20064;-94
2022/04/08 08:05:52;;;;;;;7.50;2.05;;;5.80;99.90;;;;;;4904143;29;20230;-93
2022/04/08 08:08:19;;;;;;;8.00;2.22;;;5.70;99.90;;;;;;4876697;29;20134;-91
2022/04/08 08:10:45;;;;;;;14.68;2.75;;;5.60;99.90;;;;;;4900447;29;20052;-95
2022/04/08 08:13:10;;;;;;;9.02;2.72;;;5.60;99.90;;;;;;4889371;29;20059;-89
2022/04/08 08:15:41;;;;;;;8.18;2.10;;;5.60;99.90;;;;;;4903912;29;20063;-92
2022/04/08 08:18:07;;;;;;;5.78;1.83;;;5.60;99.90;;;;;;4890882;29;20044;-95
2022/04/08 08:20:33;;;;;;;5.88;2.08;;;5.50;99.90;;;;;;4880130;29;20060;-92
2022/04/08 08:22:58;;;;;;;6.28;2.13;;;5.40;99.90;;;;;;4879197;29;20117;-87
2022/04/08 08:25:24;;;;;;;7.95;2.10;;;5.50;99.90;;;;;;4894644;29;20512;-87
2022/04/08 08:28:04;;;;;;;7.50;2.22;;;5.50;99.90;;;;;;4878027;29;20518;-89
2022/04/08 08:30:30;;;;;;;10.20;2.35;;;5.70;99.90;;;;;;4904008;29;20079;-89
2022/04/08 08:32:57;;;;;;;6.68;2.42;;;5.70;99.90;;;;;;4911358;29;20048;-88
2022/04/08 08:35:25;;;;;;;6.75;2.40;;;5.90;99.90;;;;;;4892563;29;20052;-90
2022/04/08 08:37:51;;;;;;;9.50;2.83;;;6.00;99.90;;;;;;4884328;29;20096;-90
2022/04/08 08:40:18;;;;;;;6.95;2.55;;;6.00;99.90;;;;;;4861691;29;20053;-88
2022/04/08 08:42:44;;;;;;;6.43;2.72;;;6.10;99.90;;;;;;4896800;29;20147;-92
2022/04/08 08:45:12;;;;;;;7.20;2.30;;;6.20;99.90;;;;;;4897715;29;20040;-90
2022/04/08 08:47:38;;;;;;;8.15;2.42;;;6.30;99.90;;;;;;4910916;29;20500;-87
2022/04/08 08:50:05;;;;;;;10.43;2.78;;;6.30;99.90;;;;;;4911964;29;20115;-88
2022/04/08 08:52:31;;;;;;;6.63;2.35;;;6.40;99.90;;;;;;4882794;29;20068;-89
2022/04/08 08:54:57;;;;;;;7.90;2.45;;;6.60;99.90;;;;;;4906719;29;20410;-86
2022/04/08 08:57:23;;;;;;;7.15;2.20;;;6.60;99.90;;;;;;4890922;29;20048;-87
2022/04/08 08:59:59;;;;;;;7.10;2.05;;;6.70;99.90;;;;;;4893618;29;20052;-88
2022/04/08 09:02:25;;;;;;;6.68;2.40;;;6.80;99.90;;;;;;4892756;29;20043;-89
2022/04/08 09:04:50;;;;;;;9.88;2.85;;;6.90;99.90;;;;;;4907399;29;20044;-88
2022/04/08 09:07:27;;;;;;;7.93;2.38;;;7.00;99.90;;;;;;4892211;29;20054;-89
2022/04/08 09:09:56;;;;;;;5.65;1.98;;;7.20;99.90;;;;;;4905677;29;20059;-89
2022/04/08 09:12:31;;;;;;;8.88;2.42;;;7.20;99.90;;;;;;4898937;29;20148;-88
2022/04/08 09:14:58;;;;;;;6.38;2.33;;;7.10;99.90;;;;;;4883461;29;20056;-88
2022/04/08 09:17:27;;;;;;;6.97;2.40;;;7.00;99.90;;;;;;4903811;29;20083;-88
2022/04/08 09:19:58;;;;;;;7.75;3.05;;;7.10;99.90;;;;;;4874968;29;20100;-89
2022/04/08 09:22:29;;;;;;;8.27;2.97;;;7.20;99.90;;;;;;4906355;29;20127;-88
2022/04/08 09:25:05;;;;;;;8.60;2.42;;;7.50;99.90;;;;;;4891751;29;20080;-88
2022/04/08 09:27:34;;;;;;;10.20;2.95;;;7.70;99.90;;;;;;4899586;29;20086;-88
2022/04/08 09:29:59;;;;;;;12.65;3.10;;;8.00;99.90;;;;;;4889702;29;20051;-88
2022/04/08 09:32:27;;;;;;;9.77;3.08;;;8.20;99.90;;;;;;4879690;29;20060;-88
2022/04/08 09:34:53;;;;;;;11.05;3.20;;;8.40;99.90;;;;;;4906280;29;20075;-86
2022/04/08 09:37:19;;;;;;;11.30;3.10;;;8.50;99.90;;;;;;4875139;29;20876;-87
2022/04/08 09:39:59;;;;;;;12.27;3.72;;;8.50;99.90;;;;;;4920840;29;20055;-87
2022/04/08 09:42:43;;;;;;;13.18;4.43;;;8.40;99.90;;;;;;4876602;29;20052;-86
2022/04/08 09:45:10;;;;;;;15.48;4.15;;;8.40;99.90;;;;;;4891275;29;20131;-85
2022/04/08 09:47:36;;;;;;;13.23;4.18;;;8.30;99.90;;;;;;4894807;29;20063;-87
2022/04/08 09:50:02;;;;;;;14.20;4.03;;;8.10;99.90;;;;;;4904871;29;20440;-87
2022/04/08 09:52:29;;;;;;;14.00;4.03;;;8.00;99.90;;;;;;4908985;29;20075;-87
2022/04/08 09:54:58;;;;;;;11.43;4.03;;;8.00;99.90;;;;;;4890996;29;20095;-88
2022/04/08 09:57:25;;;;;;;12.68;3.88;;;8.00;99.90;;;;;;4907708;29;20092;-87
2022/04/08 09:59:55;;;;;;;14.73;4.00;;;7.90;99.90;;;;;;4882017;29;20063;-86
2022/04/08 10:02:23;;;;;;;10.10;3.60;;;7.90;99.90;;;;;;4893236;29;20501;-86
2022/04/08 10:04:50;;;;;;;13.70;4.18;;;7.80;99.90;;;;;;4907055;29;20087;-89
2022/04/08 10:07:16;;;;;;;11.85;3.38;;;7.80;99.90;;;;;;4891460;29;20395;-85
2022/04/08 10:09:50;;;;;;;13.48;4.53;;;7.70;99.90;;;;;;4884946;29;20055;-87
2022/04/08 10:12:31;;;;;;;10.38;3.60;;;7.70;99.90;;;;;;4884537;29;20175;-87
2022/04/08 10:15:31;;;;;;;8.10;2.80;;;7.80;99.90;;;;;;4899065;29;20135;-87
2022/04/08 10:17:58;;;;;;;11.65;3.20;;;7.90;99.90;;;;;;4898105;29;20339;-90
2022/04/08 10:20:25;;;;;;;12.07;3.10;;;8.00;99.90;;;;;;4909928;29;20433;-87
2022/04/08 10:22:54;;;;;;;11.35;3.20;;;8.10;99.90;;;;;;4891463;29;20076;-86
2022/04/08 10:25:22;;;;;;;9.60;2.65;;;8.20;99.90;;;;;;4883657;29;20455;-87
2022/04/08 10:27:58;;;;;;;9.30;2.70;;;8.20;99.90;;;;;;4897368;29;20080;-88
2022/04/08 10:30:24;;;;;;;8.68;2.25;;;8.00;99.90;;;;;;4905792;29;20127;-89
2022/04/08 10:33:00;;;;;;;8.10;2.58;;;7.90;99.90;;;;;;4912896;29;20072;-90
2022/04/08 10:35:26;;;;;;;11.05;3.13;;;7.90;99.90;;;;;;4901600;29;20055;-89
2022/04/08 10:38:00;;;;;;;12.13;3.50;;;7.90;99.90;;;;;;4887402;29;20064;-90
2022/04/08 10:40:40;;;;;;;10.88;4.05;;;7.90;99.90;;;;;;4901876;29;20410;-89
2022/04/08 10:43:10;;;;;;;8.20;3.88;;;7.90;99.90;;;;;;4880291;29;20069;-89
2022/04/08 10:45:36;;;;;;;6.35;2.10;;;7.70;99.90;;;;;;4897737;29;20048;-89
2022/04/08 10:48:11;;;;;;;7.47;2.42;;;7.30;99.90;;;;;;4882302;29;20048;-90
2022/04/08 10:50:38;;;;;;;4.47;2.00;;;7.10;99.90;;;;;;4892321;29;20678;-89
2022/04/08 10:53:07;;;;;;;9.35;3.03;;;6.80;99.90;;;;;;4894365;29;20049;-91
2022/04/08 10:55:48;;;;;;;8.25;2.95;;;6.70;99.90;;;;;;4891532;29;20045;-88
2022/04/08 10:58:15;;;;;;;6.80;2.72;;;6.60;99.90;;;;;;4875766;29;20052;-88
2022/04/08 11:00:41;;;;;;;10.15;3.45;;;6.50;99.90;;;;;;4876137;29;20048;-87
2022/04/08 11:03:10;;;;;;;6.03;2.17;;;6.40;99.90;;;;;;4875449;29;20435;-90
2022/04/08 11:05:38;;;;;;;7.85;2.35;;;6.30;99.90;;;;;;4895987;29;20530;-89
2022/04/08 11:08:05;;;;;;;6.45;2.05;;;6.20;99.90;;;;;;4906393;29;20390;-89
2022/04/08 11:10:31;;;;;;;8.07;2.00;;;6.20;99.90;;;;;;4884527;29;20040;-88
2022/04/08 11:12:57;;;;;;;7.78;2.25;;;6.30;99.90;;;;;;4896023;29;20513;-87
2022/04/08 11:15:24;;;;;;;7.10;2.42;;;6.40;99.90;;;;;;4879885;29;20052;-89
2022/04/08 11:17:51;;;;;;;8.70;2.53;;;6.50;99.90;;;;;;4880708;29;20439;-88
2022/04/08 11:20:20;;;;;;;6.38;2.30;;;6.60;99.90;;;;;;4893034;29;20520;-88
2022/04/08 11:22:49;;;;;;;9.48;2.95;;;6.60;99.90;;;;;;4901246;29;20084;-88
2022/04/08 11:25:23;;;;;;;11.63;3.30;;;6.70;99.90;;;;;;4876982;29;20435;-89
2022/04/08 11:28:02;;;;;;;9.18;3.33;;;6.90;99.90;;;;;;4888618;29;20044;-87
2022/04/08 11:30:29;;;;;;;9.48;2.80;;;7.20;99.90;;;;;;4903766;29;20082;-87
2022/04/08 11:32:55;;;;;;;8.20;2.45;;;7.40;99.90;;;;;;4907452;29;20059;-89
2022/04/08 11:35:21;;;;;;;10.43;2.95;;;7.70;99.90;;;;;;4902954;29;20048;-87
2022/04/08 11:37:47;;;;;;;7.90;2.42;;;8.00;99.90;;;;;;4919485;29;20067;-87
2022/04/08 11:40:17;;;;;;;6.75;2.47;;;8.20;99.90;;;;;;4909544;29;20040;-88
2022/04/08 11:42:45;;;;;;;5.57;1.80;;;8.40;99.90;;;;;;4895207;29;20096;-87
2022/04/08 11:45:11;;;;;;;7.03;1.80;;;8.60;99.90;;;;;;4908119;29;20048;-87
2022/04/08 11:47:45;;;;;;;6.97;2.00;;;8.70;99.90;;;;;;4910614;29;20056;-86
2022/04/08 11:50:12;;;;;;;7.22;1.88;;;8.90;99.90;;;;;;4897835;29;20448;-88
2022/04/08 11:52:37;;;;;;;5.03;1.80;;;9.10;99.90;;;;;;4904618;29;20044;-87
2022/04/08 11:55:05;;;;;;;7.85;1.90;;;9.20;99.90;;;;;;4903200;29;20040;-86
2022/04/08 11:57:33;;;;;;;6.97;1.50;;;9.30;99.90;;;;;;4892172;29;20052;-88
2022/04/08 12:00:01;;;;;;;6.72;1.65;;;9.40;99.90;;;;;;4900715;29;20076;-87
2022/04/08 12:02:28;;;;;;;8.35;2.20;;;9.50;99.90;;;;;;4907245;29;20059;-89
2022/04/08 12:04:54;;;;;;;7.95;2.30;;;9.50;99.90;;;;;;4907181;29;20525;-89
2022/04/08 12:07:24;;;;;;;9.00;1.95;;;9.70;99.90;;;;;;4895247;29;20044;-88
2022/04/08 12:09:52;;;;;;;8.40;2.13;;;9.80;99.90;;;;;;4889850;29;20124;-89
2022/04/08 12:12:29;;;;;;;10.55;2.30;;;9.70;99.90;;;;;;4899027;29;20446;-85
2022/04/08 12:14:55;;;;;;;7.38;2.55;;;9.70;99.90;;;;;;4894363;29;20376;-88
2022/04/08 12:17:22;;;;;;;8.32;2.90;;;9.70;99.90;;;;;;4904509;29;20096;-88
2022/04/08 12:19:54;;;;;;;6.82;2.40;;;9.90;99.90;;;;;;4890363;29;20047;-86
2022/04/08 12:22:21;;;;;;;8.73;2.35;;;10.00;99.90;;;;;;4892732;29;20048;-87
2022/04/08 12:24:49;;;;;;;9.68;2.88;;;9.90;99.90;;;;;;4894089;29;20119;-87
2022/04/08 12:27:18;;;;;;;10.45;3.30;;;9.80;99.90;;;;;;4880674;29;20482;-86
2022/04/08 12:29:45;;;;;;;7.50;2.38;;;9.70;99.90;;;;;;4896979;29;20064;-88
2022/04/08 12:32:15;;;;;;;7.13;2.30;;;9.80;99.90;;;;;;4910336;29;20048;-87
2022/04/08 12:34:42;;;;;;;6.07;1.67;;;9.90;99.90;;;;;;4892104;29;20048;-89
2022/04/08 12:37:08;;;;;;;9.80;1.88;;;9.90;99.90;;;;;;4888331;29;20047;-89
2022/04/08 12:39:34;;;;;;;8.30;2.15;;;9.90;99.90;;;;;;4894359;29;20040;-89
2022/04/08 12:42:01;;;;;;;7.07;1.77;;;10.00;99.90;;;;;;4900253;29;20446;-87
2022/04/08 12:44:26;;;;;;;6.75;1.70;;;10.00;99.90;;;;;;4892856;29;20099;-87
2022/04/08 12:46:54;;;;;;;4.70;1.67;;;10.00;99.90;;;;;;4874106;29;20512;-87
2022/04/08 12:49:20;;;;;;;6.65;1.60;;;9.90;99.90;;;;;;4904189;29;20057;-87
2022/04/08 12:51:45;;;;;;;5.30;1.83;;;9.90;99.90;;;;;;4900647;29;20046;-88
2022/04/08 12:54:11;;;;;;;5.63;1.42;;;9.90;99.90;;;;;;4903019;29;20154;-86